Aérodrome :
LOGIN :

S'inscrire | Disclaimer

   EN    FR    IT 

 










Légende :    VFR   VFR Marginal   IFR   IFR Intensif   IFR Très Intensif
Visi : 
Plafond : 
>= 8 km
>= 3000ft
5 à 8 km
1000 à 3000 ft
1500m à 5 km
500 à 1000 ft
800 à 1500m
200 à 500 ft
< 800m
< 200 ft
Symboles :   Orages  Brouillard  Fortes neiges  Fortes précipitations  Vent > 20 kt
SIGMETs :   Divers  Orages  Givrage  Turbulence  Onde Orograph.  Cendres Volcan.







- Altitude de l'aérodrome : 935 ft


EBFS - Florennes

DERNIER METAR :
  • 152337Z AUTO 15013KT 9000 -PL SCT009/// BKN012/// BKN020/// M01/M02 Q1009 GRN

METARs EXPIRÉS :
  • 152316Z AUTO 16015KT 6000 -SN BKN009/// OVC050/// M01/M02 Q1010 GRN
  • 152308Z AUTO 16015KT 6000 -RASN OVC050/// M01/M02 Q1010 WHT
  • 152255Z AUTO 15017KT 6000 -PL OVC042/// M01/M02 Q1010 WHT
  • 152244Z AUTO 16016KT 4900 -SN OVC055/// M01/M03 Q1010 GRN
  • 152237Z AUTO 16017KT 5000 -SN FEW009/// SCT021/// OVC050/// M01/M03 Q1010 WHT
  • 152225Z AUTO 16016KT 6000 -SN FEW009/// SCT042/// OVC055/// M01/M03 Q1010 WHT
  • 152215Z AUTO 16019G29KT 9999 -FZRA FEW009/// SCT013/// OVC055/// M01/M03 Q1010 GRN
  • 152155Z AUTO 16019G30KT 9999 -FZDZ FEW008/// SCT011/// BKN029/// M01/M03 Q1010 GRN
  • 152133Z AUTO 15015KT 9000 -FZDZ FEW008/// SCT011/// BKN055/// M01/M03 Q1010 GRN
  • 152125Z AUTO 15017KT 9000 -FZRA SCT007/// BKN055/// OVC075/// M01/M03 Q1011 GRN
  • 152055Z AUTO 16020KT 4500 -SN SCT009/// BKN011/// BKN019/// M01/M03 Q1011 GRN
  • 152047Z AUTO 16018KT 3500 -SN BKN009/// BKN017/// OVC055/// M01/M03 Q1012 YLO

Prévision TAF périmée.
Pas de NOTAMs connus pour ce terrain.
3 SIGMETs publiés pour la FIR Brussels (EBBU) :
 
Givrage fort
EBBU SIGMET 10 VALID 152330/160300 EBBR
EBBU BRUSSELS FIR SEV ICE FCST EAST OF E004 FL060/180 MOV NE 15KT NC=
Givrage fort avec pluie surfondue
EBBU SIGMET 09 VALID 152300/160300 EBBR
EBBU BRUSSELS FIR SEV ICE (FZRA) OBS EAST OF E00330 SFC/FL020 MOV NE 15KT NC=
Turbulence forte
EBBU SIGMET 08 VALID 152200/160200 EBBR
EBBU BRUSSELS FIR SEV TURB FCST EAST OF E00330 SFC/FL050 MOV NE 15KT NC=



MET'MAP, la Météo Aéronautique d'un coup d'oeil ! - Copyright ORBIFLY Décembre 2007 - Disclaimer

ORBIFLY MET'MAP TEAM :

Programmation & Développement : Alexandra Zaïnal
Conception & Développement : Baudouin d'Aumeries
Co-Programmation & Développement : Marc-Olivier Méhu
Soutien technique & logistique : Manuel Goepfert

Contact : metmap@orbifly.com




SOURCES & CREDITS :

   NOAA